Aviation Digital Data Service (ADDS)

Output produced by METARs form (0106 UTC 06 December 2019)
found at http://www.aviationweather.gov/metar/data/
 
METAR text: KMSP 060053Z 33010KT 10SM BKN024 BKN200 01/M03 A2998 RMK AO2 SLP164 T00061033
Conditions at: KMSP (MINNEAPOLIS , MN, US) observed 0053 UTC 06 December 2019
Temperature: 0.6°C (33°F)
Dewpoint: -3.3°C (26°F) [RH = 75%]
Pressure (altimeter): 29.98 inches Hg (1015.3 mb)
[Sea-level pressure: 1016.4 mb]
Winds: from the NNW (330 degrees) at 12 MPH (10 knots; 5.1 m/s)
Visibility: 10 or more miles (16+ km)
Ceiling: 2400 feet AGL
Clouds: broken clouds at 2400 feet AGL
broken clouds at 20000 feet AGL
Weather: no significant weather observed at this time

METAR text: KMSP 052353Z 32007KT 10SM BKN210 01/M03 A2994 RMK AO2 SLP149 4/005 T00111028 10028 21006 53035
Conditions at: KMSP (MINNEAPOLIS , MN, US) observed 2353 UTC 05 December 2019
Temperature: 1.1°C (34°F)
Dewpoint: -2.8°C (27°F) [RH = 75%]
Pressure (altimeter): 29.94 inches Hg (1014.0 mb)
[Sea-level pressure: 1014.9 mb]
Winds: from the NW (320 degrees) at 8 MPH (7 knots; 3.6 m/s)
Visibility: 10 or more miles (16+ km)
Ceiling: 21000 feet AGL
Clouds: broken clouds at 21000 feet AGL
Weather: no significant weather observed at this time

METAR text: KMSP 052253Z 30007KT 10SM BKN210 01/M02 A2990 RMK AO2 SLP137 T00111022
Conditions at: KMSP (MINNEAPOLIS , MN, US) observed 2253 UTC 05 December 2019
Temperature: 1.1°C (34°F)
Dewpoint: -2.2°C (28°F) [RH = 79%]
Pressure (altimeter): 29.90 inches Hg (1012.6 mb)
[Sea-level pressure: 1013.7 mb]
Winds: from the WNW (300 degrees) at 8 MPH (7 knots; 3.6 m/s)
Visibility: 10 or more miles (16+ km)
Ceiling: 21000 feet AGL
Clouds: broken clouds at 21000 feet AGL
Weather: no significant weather observed at this time

METAR text: KMSP 052153Z 30008KT 10SM BKN210 02/M02 A2986 RMK AO2 SLP123 T00171017
Conditions at: KMSP (MINNEAPOLIS , MN, US) observed 2153 UTC 05 December 2019
Temperature: 1.7°C (35°F)
Dewpoint: -1.7°C (29°F) [RH = 78%]
Pressure (altimeter): 29.86 inches Hg (1011.3 mb)
[Sea-level pressure: 1012.3 mb]
Winds: from the WNW (300 degrees) at 9 MPH (8 knots; 4.1 m/s)
Visibility: 10 or more miles (16+ km)
Ceiling: 21000 feet AGL
Clouds: broken clouds at 21000 feet AGL
Weather: no significant weather observed at this time

METAR text: KMSP 052053Z 27005KT 9SM BKN200 03/M01 A2983 RMK AO2 SLP113 T00281011 55001
Conditions at: KMSP (MINNEAPOLIS , MN, US) observed 2053 UTC 05 December 2019
Temperature: 2.8°C (37°F)
Dewpoint: -1.1°C (30°F) [RH = 75%]
Pressure (altimeter): 29.83 inches Hg (1010.2 mb)
[Sea-level pressure: 1011.3 mb]
Winds: from the W (270 degrees) at 6 MPH (5 knots; 2.6 m/s)
Visibility: 9 miles (14 km)
Ceiling: 20000 feet AGL
Clouds: broken clouds at 20000 feet AGL
Weather: no significant weather observed at this time

METAR text: KMSP 051953Z 00000KT 10SM BKN200 02/M02 A2982 RMK AO2 SLP106 T00221017
Conditions at: KMSP (MINNEAPOLIS , MN, US) observed 1953 UTC 05 December 2019
Temperature: 2.2°C (36°F)
Dewpoint: -1.7°C (29°F) [RH = 75%]
Pressure (altimeter): 29.82 inches Hg (1009.9 mb)
[Sea-level pressure: 1010.6 mb]
Winds: calm
Visibility: 10 or more miles (16+ km)
Ceiling: 20000 feet AGL
Clouds: broken clouds at 20000 feet AGL
Weather: no significant weather observed at this time

METAR text: KMSP 051853Z 00000KT 10SM BKN200 01/M03 A2982 RMK AO2 SLP110 T00061028
Conditions at: KMSP (MINNEAPOLIS , MN, US) observed 1853 UTC 05 December 2019
Temperature: 0.6°C (33°F)
Dewpoint: -2.8°C (27°F) [RH = 78%]
Pressure (altimeter): 29.82 inches Hg (1009.9 mb)
[Sea-level pressure: 1011.0 mb]
Winds: calm
Visibility: 10 or more miles (16+ km)
Ceiling: 20000 feet AGL
Clouds: broken clouds at 20000 feet AGL
Weather: no significant weather observed at this time

METAR text: KMSP 051753Z 11003KT 10SM BKN250 M01/M03 A2984 RMK AO2 SLP114 4/005 T10061033 11006 21044 58013
Conditions at: KMSP (MINNEAPOLIS , MN, US) observed 1753 UTC 05 December 2019
Temperature: -0.6°C (31°F)
Dewpoint: -3.3°C (26°F) [RH = 82%]
Pressure (altimeter): 29.84 inches Hg (1010.6 mb)
[Sea-level pressure: 1011.4 mb]
Winds: from the ESE (110 degrees) at 3 MPH (3 knots; 1.5 m/s)
Visibility: 10 or more miles (16+ km)
Ceiling: 25000 feet AGL
Clouds: broken clouds at 25000 feet AGL
Weather: no significant weather observed at this time

METAR text: KMSP 051653Z 17006KT 10SM FEW140 BKN250 M01/M04 A2985 RMK AO2 SLP118 T10111039
Conditions at: KMSP (MINNEAPOLIS , MN, US) observed 1653 UTC 05 December 2019
Temperature: -1.1°C (30°F)
Dewpoint: -3.9°C (25°F) [RH = 81%]
Pressure (altimeter): 29.85 inches Hg (1010.9 mb)
[Sea-level pressure: 1011.8 mb]
Winds: from the S (170 degrees) at 7 MPH (6 knots; 3.1 m/s)
Visibility: 10 or more miles (16+ km)
Ceiling: 25000 feet AGL
Clouds: few clouds at 14000 feet AGL
broken clouds at 25000 feet AGL
Weather: no significant weather observed at this time

METAR text: KMSP 051553Z 15005KT 9SM FEW140 BKN250 M02/M04 A2987 RMK AO2 SLP125 T10221044
Conditions at: KMSP (MINNEAPOLIS , MN, US) observed 1553 UTC 05 December 2019
Temperature: -2.2°C (28°F)
Dewpoint: -4.4°C (24°F) [RH = 85%]
Pressure (altimeter): 29.87 inches Hg (1011.6 mb)
[Sea-level pressure: 1012.5 mb]
Winds: from the SSE (150 degrees) at 6 MPH (5 knots; 2.6 m/s)
Visibility: 9 miles (14 km)
Ceiling: 25000 feet AGL
Clouds: few clouds at 14000 feet AGL
broken clouds at 25000 feet AGL
Weather: no significant weather observed at this time

METAR text: KMSP 051453Z 15006KT 8SM FEW090 FEW140 BKN250 M03/M05 A2987 RMK AO2 SLP127 T10281050 58003
Conditions at: KMSP (MINNEAPOLIS , MN, US) observed 1453 UTC 05 December 2019
Temperature: -2.8°C (27°F)
Dewpoint: -5.0°C (23°F) [RH = 85%]
Pressure (altimeter): 29.87 inches Hg (1011.6 mb)
[Sea-level pressure: 1012.7 mb]
Winds: from the SSE (150 degrees) at 7 MPH (6 knots; 3.1 m/s)
Visibility: 8 miles (13 km)
Ceiling: 25000 feet AGL
Clouds: few clouds at 9000 feet AGL
few clouds at 14000 feet AGL
broken clouds at 25000 feet AGL
Weather: no significant weather observed at this time

METAR text: KMSP 051353Z 12005KT 7SM BKN090 M03/M05 A2988 RMK AO2 SLP130 T10281050
Conditions at: KMSP (MINNEAPOLIS , MN, US) observed 1353 UTC 05 December 2019
Temperature: -2.8°C (27°F)
Dewpoint: -5.0°C (23°F) [RH = 85%]
Pressure (altimeter): 29.88 inches Hg (1011.9 mb)
[Sea-level pressure: 1013.0 mb]
Winds: from the ESE (120 degrees) at 6 MPH (5 knots; 2.6 m/s)
Visibility: 7 miles (11 km)
Ceiling: 9000 feet AGL
Clouds: broken clouds at 9000 feet AGL
Weather: no significant weather observed at this time

METAR text: KMSP 051253Z 15004KT 7SM BKN090 M04/M05 A2988 RMK AO2 SLP127 T10391050
Conditions at: KMSP (MINNEAPOLIS , MN, US) observed 1253 UTC 05 December 2019
Temperature: -3.9°C (25°F)
Dewpoint: -5.0°C (23°F) [RH = 92%]
Pressure (altimeter): 29.88 inches Hg (1011.9 mb)
[Sea-level pressure: 1012.7 mb]
Winds: from the SSE (150 degrees) at 5 MPH (4 knots; 2.1 m/s)
Visibility: 7 miles (11 km)
Ceiling: 9000 feet AGL
Clouds: broken clouds at 9000 feet AGL
Weather: no significant weather observed at this time

METAR text: KMSP 051153Z 14006KT 7SM SCT090 M04/M06 A2988 RMK AO2 SLP130 4/005 I1000 I6001 T10441061 11033 21056 55008
Conditions at: KMSP (MINNEAPOLIS , MN, US) observed 1153 UTC 05 December 2019
Temperature: -4.4°C (24°F)
Dewpoint: -6.1°C (21°F) [RH = 88%]
Pressure (altimeter): 29.88 inches Hg (1011.9 mb)
[Sea-level pressure: 1013.0 mb]
Winds: from the SE (140 degrees) at 7 MPH (6 knots; 3.1 m/s)
Visibility: 7 miles (11 km)
Ceiling: at least 12,000 feet AGL
Clouds: scattered clouds at 9000 feet AGL
Weather: no significant weather observed at this time

METAR text: KMSP 051053Z 11004KT 6SM BR BKN095 M05/M07 A2988 RMK AO2 SLP130 T10501067
Conditions at: KMSP (MINNEAPOLIS , MN, US) observed 1053 UTC 05 December 2019
Temperature: -5.0°C (23°F)
Dewpoint: -6.7°C (20°F) [RH = 88%]
Pressure (altimeter): 29.88 inches Hg (1011.9 mb)
[Sea-level pressure: 1013.0 mb]
Winds: from the ESE (110 degrees) at 5 MPH (4 knots; 2.1 m/s)
Visibility: 6 miles (10 km)
Ceiling: 9500 feet AGL
Clouds: broken clouds at 9500 feet AGL
Weather: BR  (mist)

METAR text: KMSP 050953Z 00000KT 6SM BR OVC090 M04/M06 A2990 RMK AO2 SLP133 I1000 T10391056
Conditions at: KMSP (MINNEAPOLIS , MN, US) observed 0953 UTC 05 December 2019
Temperature: -3.9°C (25°F)
Dewpoint: -5.6°C (22°F) [RH = 88%]
Pressure (altimeter): 29.90 inches Hg (1012.6 mb)
[Sea-level pressure: 1013.3 mb]
Winds: calm
Visibility: 6 miles (10 km)
Ceiling: 9000 feet AGL
Clouds: overcast cloud deck at 9000 feet AGL
Weather: BR  (mist)

METAR text: KMSP 050853Z 11004KT 6SM BR FEW200 M05/M06 A2991 RMK AO2 SLP138 I1000 I3001 T10501061 51008
Conditions at: KMSP (MINNEAPOLIS , MN, US) observed 0853 UTC 05 December 2019
Temperature: -5.0°C (23°F)
Dewpoint: -6.1°C (21°F) [RH = 92%]
Pressure (altimeter): 29.91 inches Hg (1013.0 mb)
[Sea-level pressure: 1013.8 mb]
Winds: from the ESE (110 degrees) at 5 MPH (4 knots; 2.1 m/s)
Visibility: 6 miles (10 km)
Ceiling: at least 12,000 feet AGL
Clouds: few clouds at 20000 feet AGL
Weather: BR  (mist)

METAR text: KMSP 050753Z 21004KT 5SM BR SCT200 M04/M06 A2991 RMK AO2 SLP138 T10391056
Conditions at: KMSP (MINNEAPOLIS , MN, US) observed 0753 UTC 05 December 2019
Temperature: -3.9°C (25°F)
Dewpoint: -5.6°C (22°F) [RH = 88%]
Pressure (altimeter): 29.91 inches Hg (1013.0 mb)
[Sea-level pressure: 1013.8 mb]
Winds: from the SSW (210 degrees) at 5 MPH (4 knots; 2.1 m/s)
Visibility: 5 miles ( 8 km)
Ceiling: at least 12,000 feet AGL
Clouds: scattered clouds at 20000 feet AGL
Weather: BR  (mist)

METAR text: KMSP 050653Z 00000KT 5SM BR CLR M04/M07 A2989 RMK AO2 SLP133 I1001 T10441067
Conditions at: KMSP (MINNEAPOLIS , MN, US) observed 0653 UTC 05 December 2019
Temperature: -4.4°C (24°F)
Dewpoint: -6.7°C (20°F) [RH = 84%]
Pressure (altimeter): 29.89 inches Hg (1012.3 mb)
[Sea-level pressure: 1013.3 mb]
Winds: calm
Visibility: 5 miles ( 8 km)
Ceiling: at least 12,000 feet AGL
Clouds: sky clear below 12,000 feet AGL
Weather: BR  (mist)

METAR text: KMSP 050553Z 29003KT 8SM CLR M04/M06 A2988 RMK AO2 SLP129 4/005 T10441056 10000 21044 400391044 53002
Conditions at: KMSP (MINNEAPOLIS , MN, US) observed 0553 UTC 05 December 2019
Temperature: -4.4°C (24°F)
Dewpoint: -5.6°C (22°F) [RH = 91%]
Pressure (altimeter): 29.88 inches Hg (1011.9 mb)
[Sea-level pressure: 1012.9 mb]
Winds: from the WNW (290 degrees) at 3 MPH (3 knots; 1.5 m/s)
Visibility: 8 miles (13 km)
Ceiling: at least 12,000 feet AGL
Clouds: sky clear below 12,000 feet AGL
Weather: no significant weather observed at this time

METAR text: KMSP 050453Z 23004KT 7SM CLR M03/M05 A2988 RMK AO2 SLP127 T10281050
Conditions at: KMSP (MINNEAPOLIS , MN, US) observed 0453 UTC 05 December 2019
Temperature: -2.8°C (27°F)
Dewpoint: -5.0°C (23°F) [RH = 85%]
Pressure (altimeter): 29.88 inches Hg (1011.9 mb)
[Sea-level pressure: 1012.7 mb]
Winds: from the SW (230 degrees) at 5 MPH (4 knots; 2.1 m/s)
Visibility: 7 miles (11 km)
Ceiling: at least 12,000 feet AGL
Clouds: sky clear below 12,000 feet AGL
Weather: no significant weather observed at this time

METAR text: KMSP 050353Z 00000KT 10SM CLR M03/M05 A2987 RMK AO2 SLP127 T10281050
Conditions at: KMSP (MINNEAPOLIS , MN, US) observed 0353 UTC 05 December 2019
Temperature: -2.8°C (27°F)
Dewpoint: -5.0°C (23°F) [RH = 85%]
Pressure (altimeter): 29.87 inches Hg (1011.6 mb)
[Sea-level pressure: 1012.7 mb]
Winds: calm
Visibility: 10 or more miles (16+ km)
Ceiling: at least 12,000 feet AGL
Clouds: sky clear below 12,000 feet AGL
Weather: no significant weather observed at this time

METAR text: KMSP 050253Z 24003KT 10SM CLR M02/M04 A2988 RMK AO2 SLP129 T10171044 51004
Conditions at: KMSP (MINNEAPOLIS , MN, US) observed 0253 UTC 05 December 2019
Temperature: -1.7°C (29°F)
Dewpoint: -4.4°C (24°F) [RH = 82%]
Pressure (altimeter): 29.88 inches Hg (1011.9 mb)
[Sea-level pressure: 1012.9 mb]
Winds: from the WSW (240 degrees) at 3 MPH (3 knots; 1.5 m/s)
Visibility: 10 or more miles (16+ km)
Ceiling: at least 12,000 feet AGL
Clouds: sky clear below 12,000 feet AGL
Weather: no significant weather observed at this time

METAR text: KMSP 050153Z 22003KT 10SM CLR M01/M04 A2988 RMK AO2 SLP129 T10111039
Conditions at: KMSP (MINNEAPOLIS , MN, US) observed 0153 UTC 05 December 2019
Temperature: -1.1°C (30°F)
Dewpoint: -3.9°C (25°F) [RH = 81%]
Pressure (altimeter): 29.88 inches Hg (1011.9 mb)
[Sea-level pressure: 1012.9 mb]
Winds: from the SW (220 degrees) at 3 MPH (3 knots; 1.5 m/s)
Visibility: 10 or more miles (16+ km)
Ceiling: at least 12,000 feet AGL
Clouds: sky clear below 12,000 feet AGL
Weather: no significant weather observed at this time

METAR text: KMSP 050053Z 25004KT 10SM CLR M01/M04 A2987 RMK AO2 SLP126 T10061039
Conditions at: KMSP (MINNEAPOLIS , MN, US) observed 0053 UTC 05 December 2019
Temperature: -0.6°C (31°F)
Dewpoint: -3.9°C (25°F) [RH = 78%]
Pressure (altimeter): 29.87 inches Hg (1011.6 mb)
[Sea-level pressure: 1012.6 mb]
Winds: from the WSW (250 degrees) at 5 MPH (4 knots; 2.1 m/s)
Visibility: 10 or more miles (16+ km)
Ceiling: at least 12,000 feet AGL
Clouds: sky clear below 12,000 feet AGL
Weather: no significant weather observed at this time

METAR text: KMSP 042353Z 25005KT 10SM CLR 00/M04 A2987 RMK AO2 SLP123 4/005 T00001039 10039 20000 51016
Conditions at: KMSP (MINNEAPOLIS , MN, US) observed 2353 UTC 04 December 2019
Temperature: 0.0°C (32°F)
Dewpoint: -3.9°C (25°F) [RH = 75%]
Pressure (altimeter): 29.87 inches Hg (1011.6 mb)
[Sea-level pressure: 1012.3 mb]
Winds: from the WSW (250 degrees) at 6 MPH (5 knots; 2.6 m/s)
Visibility: 10 or more miles (16+ km)
Ceiling: at least 12,000 feet AGL
Clouds: sky clear below 12,000 feet AGL
Weather: no significant weather observed at this time

METAR text: KMSP 042253Z 26006KT 10SM CLR 01/M03 A2986 RMK AO2 SLP120 T00111033
Conditions at: KMSP (MINNEAPOLIS , MN, US) observed 2253 UTC 04 December 2019
Temperature: 1.1°C (34°F)
Dewpoint: -3.3°C (26°F) [RH = 72%]
Pressure (altimeter): 29.86 inches Hg (1011.3 mb)
[Sea-level pressure: 1012.0 mb]
Winds: from the W (260 degrees) at 7 MPH (6 knots; 3.1 m/s)
Visibility: 10 or more miles (16+ km)
Ceiling: at least 12,000 feet AGL
Clouds: sky clear below 12,000 feet AGL
Weather: no significant weather observed at this time

METAR text: KMSP 042153Z 26007KT 10SM FEW035 02/M03 A2983 RMK AO2 SLP109 T00221028
Conditions at: KMSP (MINNEAPOLIS , MN, US) observed 2153 UTC 04 December 2019
Temperature: 2.2°C (36°F)
Dewpoint: -2.8°C (27°F) [RH = 69%]
Pressure (altimeter): 29.83 inches Hg (1010.2 mb)
[Sea-level pressure: 1010.9 mb]
Winds: from the W (260 degrees) at 8 MPH (7 knots; 3.6 m/s)
Visibility: 10 or more miles (16+ km)
Ceiling: at least 12,000 feet AGL
Clouds: few clouds at 3500 feet AGL
Weather: no significant weather observed at this time

METAR text: KMSP 042053Z 33008KT 10SM FEW035 04/M03 A2982 RMK AO2 SLP105 T00391028 53013
Conditions at: KMSP (MINNEAPOLIS , MN, US) observed 2053 UTC 04 December 2019
Temperature: 3.9°C (39°F)
Dewpoint: -2.8°C (27°F) [RH = 62%]
Pressure (altimeter): 29.82 inches Hg (1009.9 mb)
[Sea-level pressure: 1010.5 mb]
Winds: from the NNW (330 degrees) at 9 MPH (8 knots; 4.1 m/s)
Visibility: 10 or more miles (16+ km)
Ceiling: at least 12,000 feet AGL
Clouds: few clouds at 3500 feet AGL
Weather: no significant weather observed at this time

METAR text: KMSP 041953Z 31010KT 10SM FEW040 03/M03 A2980 RMK AO2 SLP100 T00331033
Conditions at: KMSP (MINNEAPOLIS , MN, US) observed 1953 UTC 04 December 2019
Temperature: 3.3°C (38°F)
Dewpoint: -3.3°C (26°F) [RH = 62%]
Pressure (altimeter): 29.80 inches Hg (1009.2 mb)
[Sea-level pressure: 1010.0 mb]
Winds: from the NW (310 degrees) at 12 MPH (10 knots; 5.1 m/s)
Visibility: 10 or more miles (16+ km)
Ceiling: at least 12,000 feet AGL
Clouds: few clouds at 4000 feet AGL
Weather: no significant weather observed at this time

METAR text: KMSP 041853Z 32011KT 10SM FEW040 03/M03 A2978 RMK AO2 SLP094 T00331033
Conditions at: KMSP (MINNEAPOLIS , MN, US) observed 1853 UTC 04 December 2019
Temperature: 3.3°C (38°F)
Dewpoint: -3.3°C (26°F) [RH = 62%]
Pressure (altimeter): 29.78 inches Hg (1008.5 mb)
[Sea-level pressure: 1009.4 mb]
Winds: from the NW (320 degrees) at 13 MPH (11 knots; 5.7 m/s)
Visibility: 10 or more miles (16+ km)
Ceiling: at least 12,000 feet AGL
Clouds: few clouds at 4000 feet AGL
Weather: no significant weather observed at this time

METAR text: KMSP 041753Z 33012KT 10SM CLR 03/M03 A2978 RMK AO2 SLP092 4/005 T00281033 10028 21028 51006
Conditions at: KMSP (MINNEAPOLIS , MN, US) observed 1753 UTC 04 December 2019
Temperature: 2.8°C (37°F)
Dewpoint: -3.3°C (26°F) [RH = 64%]
Pressure (altimeter): 29.78 inches Hg (1008.5 mb)
[Sea-level pressure: 1009.2 mb]
Winds: from the NNW (330 degrees) at 14 MPH (12 knots; 6.2 m/s)
Visibility: 10 or more miles (16+ km)
Ceiling: at least 12,000 feet AGL
Clouds: sky clear below 12,000 feet AGL
Weather: no significant weather observed at this time

METAR text: KMSP 041653Z 32010KT 10SM CLR 03/M03 A2977 RMK AO2 SLP090 T00281033
Conditions at: KMSP (MINNEAPOLIS , MN, US) observed 1653 UTC 04 December 2019
Temperature: 2.8°C (37°F)
Dewpoint: -3.3°C (26°F) [RH = 64%]
Pressure (altimeter): 29.77 inches Hg (1008.2 mb)
[Sea-level pressure: 1009.0 mb]
Winds: from the NW (320 degrees) at 12 MPH (10 knots; 5.1 m/s)
Visibility: 10 or more miles (16+ km)
Ceiling: at least 12,000 feet AGL
Clouds: sky clear below 12,000 feet AGL
Weather: no significant weather observed at this time

METAR text: KMSP 041553Z 26005KT 10SM CLR 00/M04 A2977 RMK AO2 SLP092 T00001039
Conditions at: KMSP (MINNEAPOLIS , MN, US) observed 1553 UTC 04 December 2019
Temperature: 0.0°C (32°F)
Dewpoint: -3.9°C (25°F) [RH = 75%]
Pressure (altimeter): 29.77 inches Hg (1008.2 mb)
[Sea-level pressure: 1009.2 mb]
Winds: from the W (260 degrees) at 6 MPH (5 knots; 2.6 m/s)
Visibility: 10 or more miles (16+ km)
Ceiling: at least 12,000 feet AGL
Clouds: sky clear below 12,000 feet AGL
Weather: no significant weather observed at this time

METAR text: KMSP 041453Z 24005KT 10SM CLR M02/M04 A2976 RMK AO2 SLP087 T10171044 53016
Conditions at: KMSP (MINNEAPOLIS , MN, US) observed 1453 UTC 04 December 2019
Temperature: -1.7°C (29°F)
Dewpoint: -4.4°C (24°F) [RH = 82%]
Pressure (altimeter): 29.76 inches Hg (1007.9 mb)
[Sea-level pressure: 1008.7 mb]
Winds: from the WSW (240 degrees) at 6 MPH (5 knots; 2.6 m/s)
Visibility: 10 or more miles (16+ km)
Ceiling: at least 12,000 feet AGL
Clouds: sky clear below 12,000 feet AGL
Weather: no significant weather observed at this time

METAR text: KMSP 041353Z 25004KT 10SM CLR M02/M04 A2974 RMK AO2 SLP081 T10221044 $
Conditions at: KMSP (MINNEAPOLIS , MN, US) observed 1353 UTC 04 December 2019
Temperature: -2.2°C (28°F)
Dewpoint: -4.4°C (24°F) [RH = 85%]
Pressure (altimeter): 29.74 inches Hg (1007.2 mb)
[Sea-level pressure: 1008.1 mb]
Winds: from the WSW (250 degrees) at 5 MPH (4 knots; 2.1 m/s)
Visibility: 10 or more miles (16+ km)
Ceiling: at least 12,000 feet AGL
Clouds: sky clear below 12,000 feet AGL
Weather:
SOME DATA ABOVE MAY BE INACCURATE!!!
"$" is an indication the sensor requires maintenance

Forecast for: KMSP (MINNEAPOLIS , MN, US)
Text: KMSP 052328Z 0600/0706 32010KT P6SM SCT200
Forecast period: 0000 to 0100 UTC 06 December 2019
Forecast type: FROM: standard forecast or significant change
Winds: from the NW (320 degrees) at 12 MPH (10 knots; 5.1 m/s)
Visibility: 6 or more miles 10+ km)
Ceiling: at least 12,000 feet AGL
Clouds: scattered clouds at 20000 feet AGL
Weather: no significant weather forecast for this period
Text: FM060100 33012G20KT P6SM OVC018
Forecast period: 0100 to 0700 UTC 06 December 2019
Forecast type: FROM: standard forecast or significant change
Winds: from the NNW (330 degrees) at 14 MPH (12 knots; 6.2 m/s)
gusting to 23 MPH (20 knots; 10.3 m/s)
Visibility: 6 or more miles 10+ km)
Ceiling: 1800 feet AGL
Clouds: overcast cloud deck at 1800 feet AGL
Weather: no significant weather forecast for this period
Text: FM060700 32007KT P6SM SCT018
Forecast period: 0700 to 1900 UTC 06 December 2019
Forecast type: FROM: standard forecast or significant change
Winds: from the NW (320 degrees) at 8 MPH (7 knots; 3.6 m/s)
Visibility: 6 or more miles 10+ km)
Ceiling: at least 12,000 feet AGL
Clouds: scattered clouds at 1800 feet AGL
Weather: no significant weather forecast for this period
Text: FM061900 23004KT P6SM SCT250
Forecast period: 1900 to 2300 UTC 06 December 2019
Forecast type: FROM: standard forecast or significant change
Winds: from the SW (230 degrees) at 5 MPH (4 knots; 2.1 m/s)
Visibility: 6 or more miles 10+ km)
Ceiling: at least 12,000 feet AGL
Clouds: scattered clouds at 25000 feet AGL
Weather: no significant weather forecast for this period
Text: FM062300 16005KT P6SM OVC070
Forecast period: 2300 UTC 06 December 2019 to 0600 UTC 07 December 2019
Forecast type: FROM: standard forecast or significant change
Winds: from the SSE (160 degrees) at 6 MPH (5 knots; 2.6 m/s)
Visibility: 6 or more miles 10+ km)
Ceiling: 7000 feet AGL
Clouds: overcast cloud deck at 7000 feet AGL
Weather: no significant weather forecast for this period